createdAt,value
2019-05-22T00:02:36.898Z,100921.83
2019-05-22T00:05:13.749Z,100926.57
2019-05-22T00:07:43.970Z,100925.45
2019-05-22T00:10:18.856Z,100926.91
2019-05-22T00:12:48.452Z,100933.30
2019-05-22T00:15:17.979Z,100941.06
2019-05-22T00:17:48.497Z,100935.17
2019-05-22T00:20:19.534Z,100934.31
2019-05-22T00:22:50.678Z,100930.47
2019-05-22T00:25:20.210Z,100932.67
2019-05-22T00:27:49.212Z,100935.49
2019-05-22T00:30:19.743Z,100934.94
2019-05-22T00:32:49.757Z,100936.05
2019-05-22T00:35:20.808Z,100941.63
2019-05-22T00:37:50.184Z,100938.53
2019-05-22T00:40:19.827Z,100933.54
2019-05-22T00:43:03.247Z,100940.82
2019-05-22T00:45:23.880Z,100939.43
2019-05-22T00:47:52.433Z,100944.73
2019-05-22T00:50:27.737Z,100946.13
2019-05-22T00:53:08.963Z,100946.41
2019-05-22T00:55:41.191Z,100952.28
2019-05-22T00:58:12.937Z,100950.55
2019-05-22T01:01:00.102Z,100950.55
2019-05-22T01:03:31.439Z,100948.59
2019-05-22T01:06:00.670Z,100955.22
2019-05-22T01:08:30.486Z,100950.20
2019-05-22T01:11:00.311Z,100955.02
2019-05-22T01:13:34.528Z,100961.63
2019-05-22T01:16:06.578Z,100959.67
2019-05-22T01:18:37.614Z,100956.09
2019-05-22T01:21:07.278Z,100962.71
2019-05-22T01:23:38.428Z,100960.80
2019-05-22T01:26:08.629Z,100966.41
2019-05-22T01:28:38.072Z,100970.00
2019-05-22T01:31:12.931Z,100970.00
2019-05-22T01:33:46.813Z,100976.37
2019-05-22T01:36:32.742Z,100970.03
2019-05-22T01:39:15.707Z,100965.22
2019-05-22T01:41:49.545Z,100966.89
2019-05-22T01:44:20.368Z,100967.77
2019-05-22T01:46:49.932Z,100970.83
2019-05-22T01:49:21.569Z,100974.17
2019-05-22T01:51:50.211Z,100977.56
2019-05-22T01:54:18.727Z,100975.09
2019-05-22T01:56:50.272Z,100975.89
2019-05-22T01:59:19.933Z,100979.02
2019-05-22T02:01:49.071Z,100978.47
2019-05-22T02:04:18.593Z,100983.14
2019-05-22T02:06:47.508Z,100980.94
2019-05-22T02:09:26.404Z,100981.39
2019-05-22T02:12:09.340Z,100981.94
2019-05-22T02:14:43.848Z,100985.77
2019-05-22T02:17:14.996Z,100983.06
2019-05-22T02:19:43.737Z,100996.64
2019-05-22T02:22:14.560Z,101001.25
2019-05-22T02:24:45.951Z,100993.72
2019-05-22T02:27:16.206Z,100991.77
2019-05-22T02:29:46.339Z,100988.42
2019-05-22T02:32:16.764Z,100998.74
2019-05-22T02:34:45.772Z,100994.19
2019-05-22T02:37:15.102Z,101003.66
2019-05-22T02:39:43.907Z,101004.03
2019-05-22T02:42:18.365Z,101004.63
2019-05-22T02:44:47.983Z,101005.11
2019-05-22T02:47:20.831Z,101005.70
2019-05-22T02:49:49.442Z,101008.48
2019-05-22T02:52:19.596Z,101015.97
2019-05-22T02:54:49.190Z,101012.98
2019-05-22T02:57:18.534Z,101011.00
2019-05-22T02:59:47.755Z,101016.33
2019-05-22T03:02:17.370Z,101019.13
2019-05-22T03:04:53.969Z,101013.55
2019-05-22T03:07:23.961Z,101019.96
2019-05-22T03:09:53.240Z,101019.96
2019-05-22T03:12:23.962Z,101033.30
2019-05-22T03:14:53.770Z,101034.03
2019-05-22T03:17:27.596Z,101028.78
2019-05-22T03:19:57.625Z,101026.05
2019-05-22T03:22:33.861Z,101035.80
2019-05-22T03:25:07.952Z,101037.47
2019-05-22T03:27:47.170Z,101041.38
2019-05-22T03:30:23.798Z,101034.37
2019-05-22T03:32:53.688Z,101038.39
2019-05-22T03:35:25.445Z,101037.93
2019-05-22T03:37:56.210Z,101035.66
2019-05-22T03:40:26.224Z,101032.59
2019-05-22T03:42:56.581Z,101036.06
2019-05-22T03:45:25.301Z,101036.98
2019-05-22T03:47:56.205Z,101040.23
2019-05-22T03:50:25.645Z,101042.97
2019-05-22T03:52:57.298Z,101046.03
2019-05-22T03:55:26.686Z,101039.34
2019-05-22T03:57:55.673Z,101050.70
2019-05-22T04:00:26.489Z,101054.66
2019-05-22T04:02:56.054Z,101057.38
2019-05-22T04:05:25.601Z,101056.89
2019-05-22T04:07:56.374Z,101060.63
2019-05-22T04:10:28.322Z,101063.19
2019-05-22T04:12:57.230Z,101061.52
2019-05-22T04:15:27.064Z,101064.80
2019-05-22T04:18:04.251Z,101070.67
2019-05-22T04:20:32.983Z,101068.86
2019-05-22T04:23:01.508Z,101077.92
2019-05-22T04:25:30.732Z,101082.98
2019-05-22T04:27:59.652Z,101082.66
2019-05-22T04:30:28.970Z,101083.99
2019-05-22T04:32:59.680Z,101089.41
2019-05-22T04:35:28.712Z,101090.80
2019-05-22T04:37:58.037Z,101095.17
2019-05-22T04:40:48.417Z,101094.48
2019-05-22T04:43:20.893Z,101096.34
2019-05-22T04:45:50.025Z,101093.95
2019-05-22T04:48:19.408Z,101099.80
2019-05-22T04:50:49.554Z,101100.02
2019-05-22T04:53:18.844Z,101097.81
2019-05-22T04:55:47.794Z,101102.76
2019-05-22T04:58:21.289Z,101106.44
2019-05-22T05:00:49.926Z,101110.77
2019-05-22T05:03:20.032Z,101112.72
2019-05-22T05:05:51.265Z,101108.64
2019-05-22T05:08:19.901Z,101108.64
2019-05-22T05:10:51.787Z,101111.39
2019-05-22T05:13:20.738Z,101115.69
2019-05-22T05:15:49.356Z,101118.95
2019-05-22T05:18:17.983Z,101119.31
2019-05-22T05:20:46.909Z,101116.70
2019-05-22T05:23:15.726Z,101115.70
2019-05-22T05:25:44.550Z,101125.36
2019-05-22T05:28:15.289Z,101126.62
2019-05-22T05:30:44.608Z,101126.96
2019-05-22T05:33:13.639Z,101119.62
2019-05-22T05:35:43.065Z,101118.23
2019-05-22T05:38:13.284Z,101120.35
2019-05-22T05:40:42.682Z,101127.26
2019-05-22T05:43:14.793Z,101133.34
2019-05-22T05:45:45.891Z,101132.17
2019-05-22T05:48:17.017Z,101140.52
2019-05-22T05:51:35.276Z,101140.86
2019-05-22T05:54:14.812Z,101143.05
2019-05-22T05:56:45.576Z,101148.34
2019-05-22T05:59:14.758Z,101144.70
2019-05-22T06:01:50.295Z,101153.68
2019-05-22T06:04:34.786Z,101155.18
2019-05-22T06:07:23.760Z,101157.35
2019-05-22T06:10:23.218Z,101157.30
2019-05-22T06:12:51.972Z,101158.30
2019-05-22T06:15:23.857Z,101161.32
2019-05-22T06:18:40.655Z,101168.50
2019-05-22T06:21:10.284Z,101162.93
2019-05-22T06:24:34.742Z,101165.83
2019-05-22T06:27:08.254Z,101177.55
2019-05-22T06:29:46.690Z,101178.59
2019-05-22T06:32:54.102Z,101172.29
2019-05-22T06:35:26.074Z,101177.03
2019-05-22T06:38:16.297Z,101180.43
2019-05-22T06:40:45.115Z,101181.48
2019-05-22T06:43:59.180Z,101184.15
2019-05-22T06:46:44.871Z,101182.11
2019-05-22T06:49:55.966Z,101186.62
2019-05-22T06:52:25.009Z,101189.52
2019-05-22T06:54:54.774Z,101185.67
2019-05-22T06:57:32.672Z,101193.03
2019-05-22T07:00:14.313Z,101199.61
2019-05-22T07:02:39.612Z,101203.17
2019-05-22T07:05:09.149Z,101199.65
2019-05-22T07:07:38.088Z,101191.11
2019-05-22T07:10:11.876Z,101195.09
2019-05-22T07:12:42.654Z,101195.58
2019-05-22T07:15:33.430Z,101207.33
2019-05-22T07:18:03.472Z,101202.22
2019-05-22T07:20:34.846Z,101198.84
2019-05-22T07:23:06.128Z,101203.11
2019-05-22T07:25:35.755Z,101205.66
2019-05-22T07:28:05.345Z,101202.22
2019-05-22T07:30:34.457Z,101202.66
2019-05-22T07:33:03.913Z,101200.15
2019-05-22T07:35:49.749Z,101199.59
2019-05-22T07:38:03.500Z,101204.27
2019-05-22T07:40:32.924Z,101204.30
2019-05-22T07:43:01.549Z,101209.71
2019-05-22T07:45:31.769Z,101210.33
2019-05-22T07:48:00.775Z,101213.20
2019-05-22T07:50:33.006Z,101202.80
2019-05-22T07:53:03.289Z,101211.16
2019-05-22T07:55:32.599Z,101216.23
2019-05-22T07:58:08.663Z,101219.10
2019-05-22T08:00:49.336Z,101223.84
2019-05-22T08:03:18.998Z,101222.73
2019-05-22T08:05:52.999Z,101217.33
2019-05-22T08:08:23.068Z,101219.18
2019-05-22T08:10:53.641Z,101213.27
2019-05-22T08:13:23.117Z,101211.73
2019-05-22T08:15:52.012Z,101219.10
2019-05-22T08:18:21.165Z,101217.70
2019-05-22T08:20:49.886Z,101217.66
2019-05-22T08:23:19.025Z,101210.50
2019-05-22T08:25:47.863Z,101217.64
2019-05-22T08:28:18.370Z,101216.61
2019-05-22T08:30:48.465Z,101216.17
2019-05-22T08:33:18.505Z,101217.64
2019-05-22T08:35:47.552Z,101218.01
2019-05-22T08:38:16.681Z,101216.17
2019-05-22T08:40:46.734Z,101230.17
2019-05-22T08:43:16.571Z,101222.78
2019-05-22T08:45:45.990Z,101227.33
2019-05-22T08:48:16.040Z,101231.22
2019-05-22T08:50:45.828Z,101230.83
2019-05-22T08:53:15.852Z,101223.07
2019-05-22T08:55:44.991Z,101228.47
2019-05-22T08:58:14.915Z,101232.41
2019-05-22T09:00:44.406Z,101232.05
2019-05-22T09:03:13.945Z,101228.66
2019-05-22T09:05:43.553Z,101237.21
2019-05-22T09:08:12.287Z,101231.54
2019-05-22T09:10:41.504Z,101227.80
2019-05-22T09:13:10.119Z,101233.40
2019-05-22T09:15:39.560Z,101227.47
2019-05-22T09:18:08.613Z,101226.97
2019-05-22T09:20:48.873Z,101228.38
2019-05-22T09:23:11.217Z,101234.70
2019-05-22T09:25:40.273Z,101234.54
2019-05-22T09:28:08.921Z,101228.23
2019-05-22T09:30:37.539Z,101231.46
2019-05-22T09:33:08.084Z,101237.52
2019-05-22T09:35:36.820Z,101231.23
2019-05-22T09:38:05.560Z,101230.89
2019-05-22T09:40:34.590Z,101234.13
2019-05-22T09:43:04.513Z,101236.69
2019-05-22T09:45:35.266Z,101234.96
2019-05-22T09:48:04.818Z,101232.39
2019-05-22T09:50:34.183Z,101234.48
2019-05-22T09:53:05.644Z,101231.67
2019-05-22T09:55:35.428Z,101231.80
2019-05-22T09:58:05.047Z,101228.24
2019-05-22T10:00:33.775Z,101231.29
2019-05-22T10:03:03.345Z,101225.84
2019-05-22T10:05:32.195Z,101225.84
2019-05-22T10:08:01.894Z,101233.37
2019-05-22T10:10:31.049Z,101235.97
2019-05-22T10:12:59.665Z,101224.65
2019-05-22T10:15:29.325Z,101231.18
2019-05-22T10:17:58.433Z,101235.73
2019-05-22T10:20:27.053Z,101221.81
2019-05-22T10:22:56.499Z,101231.59
2019-05-22T10:25:25.616Z,101242.98
2019-05-22T10:27:54.237Z,101236.03
2019-05-22T10:30:23.960Z,101236.03
2019-05-22T10:32:52.794Z,101246.40
2019-05-22T10:35:24.608Z,101240.78
2019-05-22T10:37:54.466Z,101243.24
2019-05-22T10:40:23.592Z,101227.13
2019-05-22T10:42:52.526Z,101238.82
2019-05-22T10:45:21.306Z,101244.63
2019-05-22T10:47:50.412Z,101243.17
2019-05-22T10:50:19.247Z,101240.45
2019-05-22T10:52:53.711Z,101233.51
2019-05-22T10:55:19.852Z,101231.42
2019-05-22T10:57:48.511Z,101231.47
2019-05-22T11:00:18.423Z,101225.73
2019-05-22T11:02:48.301Z,101217.94
2019-05-22T11:05:19.103Z,101213.34
2019-05-22T11:07:48.432Z,101218.05
2019-05-22T11:10:19.277Z,101216.48
2019-05-22T11:12:48.298Z,101218.66
2019-05-22T11:15:17.035Z,101219.27
2019-05-22T11:17:45.942Z,101213.37
2019-05-22T11:20:15.972Z,101221.11
2019-05-22T11:22:44.644Z,101214.71
2019-05-22T11:25:14.050Z,101219.55
2019-05-22T11:27:43.137Z,101222.58
2019-05-22T11:30:14.283Z,101223.67
2019-05-22T11:32:43.407Z,101224.28
2019-05-22T11:35:13.310Z,101218.73
2019-05-22T11:37:42.049Z,101215.75
2019-05-22T11:40:11.451Z,101207.25
2019-05-22T11:42:40.849Z,101203.15
2019-05-22T11:45:11.383Z,101205.42
2019-05-22T11:47:40.203Z,101203.25
2019-05-22T11:50:10.247Z,101204.79
2019-05-22T11:52:40.015Z,101212.13
2019-05-22T11:55:10.252Z,101203.91
2019-05-22T11:57:40.357Z,101209.52
2019-05-22T12:00:10.625Z,101215.76
2019-05-22T12:02:39.571Z,101204.44
2019-05-22T12:05:10.792Z,101198.69
2019-05-22T12:07:40.322Z,101198.22
2019-05-22T12:10:09.965Z,101195.38
2019-05-22T12:12:39.790Z,101194.28
2019-05-22T12:15:10.949Z,101190.89
2019-05-22T12:17:39.918Z,101188.60
2019-05-22T12:20:09.540Z,101205.80
2019-05-22T12:22:38.408Z,101195.17
2019-05-22T12:25:09.367Z,101191.25
2019-05-22T12:27:38.513Z,101189.69
2019-05-22T12:30:09.236Z,101186.34
2019-05-22T12:32:38.766Z,101193.84
2019-05-22T12:35:07.755Z,101206.77
2019-05-22T12:37:36.574Z,101198.48
2019-05-22T12:40:05.738Z,101196.27
2019-05-22T12:42:35.049Z,101189.60
2019-05-22T12:45:06.446Z,101193.27
2019-05-22T12:47:35.989Z,101188.56
2019-05-22T12:50:05.356Z,101195.67
2019-05-22T12:52:34.360Z,101189.55
2019-05-22T12:55:03.834Z,101197.38
2019-05-22T12:57:32.981Z,101182.78
2019-05-22T13:00:03.007Z,101181.90
2019-05-22T13:02:32.925Z,101181.07
2019-05-22T13:05:01.957Z,101183.61
2019-05-22T13:07:30.945Z,101178.82
2019-05-22T13:09:59.679Z,101178.09
2019-05-22T13:12:29.397Z,101177.41
2019-05-22T13:15:09.139Z,101175.06
2019-05-22T13:17:31.669Z,101176.55
2019-05-22T13:20:01.984Z,101173.44
2019-05-22T13:22:32.538Z,101172.13
2019-05-22T13:25:02.087Z,101166.94
2019-05-22T13:27:32.912Z,101180.02
2019-05-22T13:30:03.544Z,101183.45
2019-05-22T13:32:34.636Z,101189.45
2019-05-22T13:35:04.080Z,101189.61
2019-05-22T13:37:32.780Z,101189.11
2019-05-22T13:40:01.849Z,101175.58
2019-05-22T13:42:30.560Z,101185.38
2019-05-22T13:44:59.368Z,101192.73
2019-05-22T13:47:28.045Z,101190.29
2019-05-22T13:49:56.791Z,101185.34
2019-05-22T13:52:25.505Z,101187.62
2019-05-22T13:54:55.745Z,101167.42
2019-05-22T13:57:25.306Z,101166.63
2019-05-22T13:59:54.019Z,101179.23
2019-05-22T14:02:26.956Z,101180.97
2019-05-22T14:04:53.923Z,101186.17
2019-05-22T14:07:22.668Z,101180.80
2019-05-22T14:09:52.186Z,101178.73
2019-05-22T14:12:20.937Z,101175.32
2019-05-22T14:14:50.364Z,101168.84
2019-05-22T14:17:18.957Z,101177.84
2019-05-22T14:19:47.824Z,101166.81
2019-05-22T14:22:16.545Z,101165.58
2019-05-22T14:24:45.259Z,101177.27
2019-05-22T14:27:13.997Z,101165.22
2019-05-22T14:29:42.813Z,101163.63
2019-05-22T14:32:12.622Z,101162.05
2019-05-22T14:34:41.375Z,101161.18
2019-05-22T14:37:12.068Z,101168.41
2019-05-22T14:39:41.177Z,101171.33
2019-05-22T14:42:11.218Z,101176.33
2019-05-22T14:44:39.932Z,101170.25
2019-05-22T14:47:14.568Z,101163.63
2019-05-22T14:49:39.692Z,101163.89
2019-05-22T14:52:09.014Z,101158.73
2019-05-22T14:54:37.708Z,101161.05
2019-05-22T14:57:07.223Z,101163.76
2019-05-22T14:59:36.344Z,101158.23
2019-05-22T15:02:05.450Z,101152.86
2019-05-22T15:04:34.405Z,101158.16
2019-05-22T15:07:03.712Z,101161.20
2019-05-22T15:09:32.520Z,101157.11
2019-05-22T15:12:01.521Z,101153.16
2019-05-22T15:14:30.128Z,101151.16
2019-05-22T15:16:58.844Z,101156.30
2019-05-22T15:19:27.491Z,101147.48
2019-05-22T15:21:56.234Z,101150.41
2019-05-22T15:24:25.085Z,101145.83
2019-05-22T15:26:54.872Z,101142.77
2019-05-22T15:29:23.788Z,101152.14
2019-05-22T15:31:53.307Z,101151.66
2019-05-22T15:34:23.339Z,101138.16
2019-05-22T15:36:52.036Z,101127.88
2019-05-22T15:39:22.855Z,101141.64
2019-05-22T15:41:52.014Z,101130.73
2019-05-22T15:44:21.748Z,101129.88
2019-05-22T15:46:51.152Z,101126.56
2019-05-22T15:49:20.408Z,101138.90
2019-05-22T15:51:49.531Z,101125.44
2019-05-22T15:54:18.458Z,101129.38
2019-05-22T15:56:47.573Z,101132.55
2019-05-22T15:59:16.396Z,101132.55
2019-05-22T16:01:45.519Z,101126.09
2019-05-22T16:04:15.851Z,101122.65
2019-05-22T16:06:45.459Z,101126.66
2019-05-22T16:09:16.731Z,101132.33
2019-05-22T16:11:50.178Z,101130.77
2019-05-22T16:14:19.192Z,101123.83
2019-05-22T16:16:50.210Z,101126.45
2019-05-22T16:19:22.608Z,101136.48
2019-05-22T16:21:54.964Z,101125.81
2019-05-22T16:24:24.102Z,101125.81
2019-05-22T16:26:52.747Z,101129.79
2019-05-22T16:29:23.273Z,101132.37
2019-05-22T16:31:54.798Z,101132.48
2019-05-22T16:34:23.614Z,101133.84
2019-05-22T16:36:53.608Z,101132.30
2019-05-22T16:39:23.119Z,101135.26
2019-05-22T16:41:52.674Z,101118.52
2019-05-22T16:44:21.386Z,101118.52
2019-05-22T16:46:50.622Z,101124.64
2019-05-22T16:49:19.952Z,101123.69
2019-05-22T16:51:49.369Z,101125.63
2019-05-22T16:54:20.732Z,101124.70
2019-05-22T16:56:48.945Z,101125.50
2019-05-22T16:59:18.178Z,101120.01
2019-05-22T17:01:58.879Z,101120.01
2019-05-22T17:04:17.969Z,101120.09
2019-05-22T17:06:46.888Z,101120.91
2019-05-22T17:09:18.270Z,101121.77
2019-05-22T17:11:47.320Z,101121.50
2019-05-22T17:14:18.955Z,101117.98
2019-05-22T17:16:48.497Z,101122.93
2019-05-22T17:19:26.667Z,101119.95
2019-05-22T17:21:48.286Z,101133.66
2019-05-22T17:24:19.202Z,101124.43
2019-05-22T17:26:50.951Z,101124.75
2019-05-22T17:29:19.872Z,101123.59
2019-05-22T17:31:48.981Z,101128.37
2019-05-22T17:34:37.033Z,101120.44
2019-05-22T17:37:12.997Z,101123.12
2019-05-22T17:39:45.880Z,101121.86
2019-05-22T17:42:16.630Z,101123.41
2019-05-22T17:44:47.000Z,101129.89
2019-05-22T17:47:18.562Z,101123.27
2019-05-22T17:49:47.886Z,101126.95
2019-05-22T17:52:18.002Z,101125.47
2019-05-22T17:54:48.658Z,101120.44
2019-05-22T17:57:18.842Z,101121.36
2019-05-22T17:59:47.553Z,101121.20
2019-05-22T18:02:18.925Z,101117.91
2019-05-22T18:04:48.329Z,101118.84
2019-05-22T18:07:17.049Z,101123.06
2019-05-22T18:09:46.174Z,101125.18
2019-05-22T18:12:15.228Z,101122.38
2019-05-22T18:14:45.928Z,101129.85
2019-05-22T18:17:15.147Z,101132.95
2019-05-22T18:19:44.284Z,101127.91
2019-05-22T18:22:13.812Z,101128.80
2019-05-22T18:24:42.378Z,101131.11
2019-05-22T18:27:10.982Z,101127.08
2019-05-22T18:29:39.601Z,101134.94
2019-05-22T18:32:09.843Z,101134.27
2019-05-22T18:34:38.460Z,101135.61
2019-05-22T18:37:07.203Z,101132.05
2019-05-22T18:39:36.335Z,101134.09
2019-05-22T18:42:05.290Z,101135.34
2019-05-22T18:44:33.797Z,101139.58
2019-05-22T18:47:03.439Z,101145.87
2019-05-22T18:49:31.952Z,101139.56
2019-05-22T18:52:00.918Z,101145.83
2019-05-22T18:54:29.627Z,101130.69
2019-05-22T18:56:58.199Z,101136.41
2019-05-22T18:59:26.934Z,101140.80
2019-05-22T19:01:55.679Z,101137.67
2019-05-22T19:04:24.472Z,101140.91
2019-05-22T19:06:55.880Z,101142.67
2019-05-22T19:09:24.240Z,101137.67
2019-05-22T19:11:53.156Z,101137.84
2019-05-22T19:14:22.360Z,101137.59
2019-05-22T19:16:51.180Z,101144.38
2019-05-22T19:19:20.016Z,101144.48
2019-05-22T19:21:48.824Z,101145.13
2019-05-22T19:24:18.230Z,101150.77
2019-05-22T19:26:47.440Z,101161.45
2019-05-22T19:29:16.356Z,101155.34
2019-05-22T19:31:44.908Z,101161.05
2019-05-22T19:34:13.526Z,101163.33
2019-05-22T19:36:42.461Z,101165.30
2019-05-22T19:39:11.404Z,101164.17
2019-05-22T19:41:40.428Z,101172.59
2019-05-22T19:44:10.145Z,101170.91
2019-05-22T19:46:39.282Z,101176.24
2019-05-22T19:49:08.513Z,101174.58
2019-05-22T19:51:37.450Z,101177.68
2019-05-22T19:54:07.028Z,101174.59
2019-05-22T19:56:35.936Z,101184.94
2019-05-22T19:59:04.991Z,101183.25
2019-05-22T20:01:33.720Z,101179.63
2019-05-22T20:04:02.448Z,101173.98
2019-05-22T20:06:31.660Z,101183.52
2019-05-22T20:09:00.202Z,101185.74
2019-05-22T20:11:29.122Z,101187.68
2019-05-22T20:13:58.446Z,101191.57
2019-05-22T20:16:27.073Z,101191.55
2019-05-22T20:18:56.190Z,101191.27
2019-05-22T20:21:25.683Z,101192.95
2019-05-22T20:23:54.232Z,101200.42
2019-05-22T20:26:22.939Z,101201.61
2019-05-22T20:28:52.372Z,101201.80
2019-05-22T20:31:21.155Z,101203.47
2019-05-22T20:33:49.787Z,101206.56
2019-05-22T20:36:18.798Z,101204.28
2019-05-22T20:38:47.443Z,101206.48
2019-05-22T20:41:17.166Z,101210.97
2019-05-22T20:43:46.494Z,101210.70
2019-05-22T20:46:17.886Z,101213.56
2019-05-22T20:48:47.700Z,101216.17
2019-05-22T20:51:17.531Z,101212.03
2019-05-22T20:53:53.940Z,101223.20
2019-05-22T20:56:20.212Z,101214.55
2019-05-22T20:58:49.333Z,101221.81
2019-05-22T21:01:18.382Z,101226.87
2019-05-22T21:03:47.222Z,101217.61
2019-05-22T21:06:18.840Z,101220.70
2019-05-22T21:08:49.287Z,101225.77
2019-05-22T21:11:21.719Z,101218.20
2019-05-22T21:13:51.748Z,101222.66
2019-05-22T21:16:21.162Z,101222.89
2019-05-22T21:18:51.730Z,101224.56
2019-05-22T21:21:21.570Z,101225.11
2019-05-22T21:23:50.602Z,101223.66
2019-05-22T21:26:19.821Z,101230.62
2019-05-22T21:28:48.884Z,101232.88
2019-05-22T21:31:19.396Z,101232.03
2019-05-22T21:33:49.516Z,101234.81
2019-05-22T21:36:19.330Z,101234.48
2019-05-22T21:38:48.351Z,101231.39
2019-05-22T21:41:19.895Z,101236.98
2019-05-22T21:43:49.014Z,101235.30
2019-05-22T21:46:18.126Z,101239.22
2019-05-22T21:48:49.963Z,101230.78
2019-05-22T21:51:18.599Z,101234.95
2019-05-22T21:53:47.443Z,101234.34
2019-05-22T21:56:16.634Z,101232.30
2019-05-22T21:58:45.890Z,101231.20
2019-05-22T22:01:26.592Z,101239.00
2019-05-22T22:04:00.475Z,101236.11
2019-05-22T22:06:33.202Z,101240.27
2019-05-22T22:09:00.371Z,101240.75
2019-05-22T22:11:29.601Z,101243.72
2019-05-22T22:13:58.727Z,101241.95
2019-05-22T22:16:27.259Z,101242.52
2019-05-22T22:18:56.490Z,101244.15
2019-05-22T22:21:25.603Z,101247.73
2019-05-22T22:23:54.638Z,101252.53
2019-05-22T22:26:25.889Z,101257.19
2019-05-22T22:28:54.501Z,101249.00
2019-05-22T22:31:25.574Z,101248.64
2019-05-22T22:34:02.182Z,101258.83
2019-05-22T22:36:31.632Z,101255.97
2019-05-22T22:39:00.269Z,101255.61
2019-05-22T22:41:29.679Z,101251.02
2019-05-22T22:43:59.074Z,101257.59
2019-05-22T22:46:38.359Z,101260.34
2019-05-22T22:49:12.283Z,101261.12
2019-05-22T22:51:41.796Z,101260.73
2019-05-22T22:54:12.252Z,101259.00
2019-05-22T22:56:41.305Z,101257.51
2019-05-22T22:59:11.100Z,101261.41
2019-05-22T23:01:41.329Z,101258.78
2019-05-22T23:04:11.601Z,101258.78
2019-05-22T23:06:40.634Z,101261.17
2019-05-22T23:09:11.825Z,101256.93
2019-05-22T23:11:42.841Z,101256.30
2019-05-22T23:14:12.211Z,101257.55
2019-05-22T23:16:41.123Z,101258.00
2019-05-22T23:19:33.533Z,101257.63
2019-05-22T23:22:04.853Z,101260.91
2019-05-22T23:24:34.991Z,101258.29
2019-05-22T23:27:05.872Z,101251.78
2019-05-22T23:29:35.096Z,101252.62
2019-05-22T23:32:05.944Z,101256.73
2019-05-22T23:34:35.459Z,101254.49
2019-05-22T23:37:06.184Z,101257.64
2019-05-22T23:39:35.495Z,101256.59
2019-05-22T23:42:11.958Z,101253.16
2019-05-22T23:44:40.888Z,101247.95
2019-05-22T23:47:10.352Z,101248.09
2019-05-22T23:49:40.573Z,101251.23
2019-05-22T23:52:11.684Z,101252.14
2019-05-22T23:54:40.715Z,101254.28
2019-05-22T23:57:12.332Z,101250.25
2019-05-22T23:59:43.816Z,101256.72
